sensor_id;sensor_type;location;lat;lon;timestamp;temperature;humidity
63966;DHT22;50151;52.030;5.350;2022-08-21T09:10:56;20.70;75.30
63966;DHT22;50151;52.030;5.350;2022-08-21T09:13:54;20.70;75.60
63966;DHT22;50151;52.030;5.350;2022-08-21T09:22:17;21.10;73.80
63966;DHT22;50151;52.030;5.350;2022-08-21T09:27:34;21.40;72.90
63966;DHT22;50151;52.030;5.350;2022-08-21T09:30:05;21.10;73.30
63966;DHT22;50151;52.030;5.350;2022-08-21T09:32:35;21.30;72.40
63966;DHT22;50151;52.030;5.350;2022-08-21T09:35:14;21.20;71.10
63966;DHT22;50151;52.030;5.350;2022-08-21T09:37:54;21.40;71.00
63966;DHT22;50151;52.030;5.350;2022-08-21T09:40:39;21.40;70.50
63966;DHT22;50151;52.030;5.350;2022-08-21T09:43:17;21.60;70.60
63966;DHT22;50151;52.030;5.350;2022-08-21T09:45:46;21.80;70.90
63966;DHT22;50151;52.030;5.350;2022-08-21T09:48:24;21.80;70.40
63966;DHT22;50151;52.030;5.350;2022-08-21T09:51:06;21.70;70.20
63966;DHT22;50151;52.030;5.350;2022-08-21T09:53:39;21.90;70.10
63966;DHT22;50151;52.030;5.350;2022-08-21T09:56:32;21.60;69.70
63966;DHT22;50151;52.030;5.350;2022-08-21T10:01:49;21.40;69.70
63966;DHT22;50151;52.030;5.350;2022-08-21T10:04:22;21.60;70.90
63966;DHT22;50151;52.030;5.350;2022-08-21T10:06:50;22.10;70.00
63966;DHT22;50151;52.030;5.350;2022-08-21T10:09:21;22.30;68.40
63966;DHT22;50151;52.030;5.350;2022-08-21T10:14:41;21.90;67.40
63966;DHT22;50151;52.030;5.350;2022-08-21T10:23:27;22.70;67.10
63966;DHT22;50151;52.030;5.350;2022-08-21T10:31:29;22.50;63.40
63966;DHT22;50151;52.030;5.350;2022-08-21T10:34:29;22.80;62.80
63966;DHT22;50151;52.030;5.350;2022-08-21T10:37:05;22.80;61.70
63966;DHT22;50151;52.030;5.350;2022-08-21T10:42:41;22.80;61.90
63966;DHT22;50151;52.030;5.350;2022-08-21T10:45:22;23.00;62.10
63966;DHT22;50151;52.030;5.350;2022-08-21T10:47:58;23.00;60.40
63966;DHT22;50151;52.030;5.350;2022-08-21T10:56:01;23.60;60.60
63966;DHT22;50151;52.030;5.350;2022-08-21T10:58:35;23.10;61.50
63966;DHT22;50151;52.030;5.350;2022-08-21T11:01:09;22.80;62.30
63966;DHT22;50151;52.030;5.350;2022-08-21T11:03:42;23.10;61.40
63966;DHT22;50151;52.030;5.350;2022-08-21T11:06:14;23.40;60.20
63966;DHT22;50151;52.030;5.350;2022-08-21T11:08:45;23.80;59.50
63966;DHT22;50151;52.030;5.350;2022-08-21T11:11:35;23.70;58.50
63966;DHT22;50151;52.030;5.350;2022-08-21T11:14:25;23.80;57.50
63966;DHT22;50151;52.030;5.350;2022-08-21T11:17:07;23.60;56.10
63966;DHT22;50151;52.030;5.350;2022-08-21T11:19:42;23.80;53.40
63966;DHT22;50151;52.030;5.350;2022-08-21T11:22:22;23.90;54.90
63966;DHT22;50151;52.030;5.350;2022-08-21T11:27:42;24.30;55.40
63966;DHT22;50151;52.030;5.350;2022-08-21T11:30:10;24.30;53.30
63966;DHT22;50151;52.030;5.350;2022-08-21T11:51:26;23.90;54.40
63966;DHT22;50151;52.030;5.350;2022-08-21T11:54:08;24.00;55.10
63966;DHT22;50151;52.030;5.350;2022-08-21T11:56:47;24.60;54.50
63966;DHT22;50151;52.030;5.350;2022-08-21T11:59:57;24.60;52.30
63966;DHT22;50151;52.030;5.350;2022-08-21T12:02:22;24.60;53.20
63966;DHT22;50151;52.030;5.350;2022-08-21T12:04:58;25.20;52.20
63966;DHT22;50151;52.030;5.350;2022-08-21T12:07:40;25.00;51.20
63966;DHT22;50151;52.030;5.350;2022-08-21T12:10:17;24.40;52.40
63966;DHT22;50151;52.030;5.350;2022-08-21T12:12:47;25.00;51.20
63966;DHT22;50151;52.030;5.350;2022-08-21T12:20:43;25.10;50.10
63966;DHT22;50151;52.030;5.350;2022-08-21T12:23:24;24.70;50.80
63966;DHT22;50151;52.030;5.350;2022-08-21T12:26:11;24.80;51.30
63966;DHT22;50151;52.030;5.350;2022-08-21T12:28:41;24.50;52.10
63966;DHT22;50151;52.030;5.350;2022-08-21T12:31:21;24.90;51.90
63966;DHT22;50151;52.030;5.350;2022-08-21T12:33:58;24.60;51.60
63966;DHT22;50151;52.030;5.350;2022-08-21T12:36:38;24.40;53.20
63966;DHT22;50151;52.030;5.350;2022-08-21T12:39:14;24.20;54.90
63966;DHT22;50151;52.030;5.350;2022-08-21T12:41:52;24.30;55.20
63966;DHT22;50151;52.030;5.350;2022-08-21T12:44:38;25.00;54.50
63966;DHT22;50151;52.030;5.350;2022-08-21T12:47:14;25.50;51.60
63966;DHT22;50151;52.030;5.350;2022-08-21T12:52:54;25.70;48.30
63966;DHT22;50151;52.030;5.350;2022-08-21T12:55:27;25.90;48.20
63966;DHT22;50151;52.030;5.350;2022-08-21T12:57:54;25.10;49.30
63966;DHT22;50151;52.030;5.350;2022-08-21T13:00:23;24.90;50.80
63966;DHT22;50151;52.030;5.350;2022-08-21T13:02:51;24.90;50.20
63966;DHT22;50151;52.030;5.350;2022-08-21T13:05:35;24.70;50.10
63966;DHT22;50151;52.030;5.350;2022-08-21T13:08:10;25.90;48.50
63966;DHT22;50151;52.030;5.350;2022-08-21T13:10:39;26.40;46.50
63966;DHT22;50151;52.030;5.350;2022-08-21T13:13:12;26.90;46.50
63966;DHT22;50151;52.030;5.350;2022-08-21T13:16:04;26.70;45.60
63966;DHT22;50151;52.030;5.350;2022-08-21T13:18:35;26.80;42.90
63966;DHT22;50151;52.030;5.350;2022-08-21T13:21:14;27.40;42.50
63966;DHT22;50151;52.030;5.350;2022-08-21T13:23:41;27.50;41.40
63966;DHT22;50151;52.030;5.350;2022-08-21T13:26:16;27.10;42.50
63966;DHT22;50151;52.030;5.350;2022-08-21T13:28:44;27.40;41.90
63966;DHT22;50151;52.030;5.350;2022-08-21T13:31:22;28.10;41.00
63966;DHT22;50151;52.030;5.350;2022-08-21T13:33:51;27.80;41.30
63966;DHT22;50151;52.030;5.350;2022-08-21T13:36:25;27.60;41.30
63966;DHT22;50151;52.030;5.350;2022-08-21T13:38:53;27.40;42.60
63966;DHT22;50151;52.030;5.350;2022-08-21T13:41:31;27.40;43.70
63966;DHT22;50151;52.030;5.350;2022-08-21T13:44:01;27.60;42.40
63966;DHT22;50151;52.030;5.350;2022-08-21T13:46:32;27.90;40.50
63966;DHT22;50151;52.030;5.350;2022-08-21T13:49:02;28.10;41.40
63966;DHT22;50151;52.030;5.350;2022-08-21T13:51:30;27.90;41.80
63966;DHT22;50151;52.030;5.350;2022-08-21T13:53:58;27.90;41.50
63966;DHT22;50151;52.030;5.350;2022-08-21T13:58:58;29.00;41.10
63966;DHT22;50151;52.030;5.350;2022-08-21T14:01:35;29.00;39.80
63966;DHT22;50151;52.030;5.350;2022-08-21T14:04:07;28.30;42.00
63966;DHT22;50151;52.030;5.350;2022-08-21T14:06:38;28.60;39.70
63966;DHT22;50151;52.030;5.350;2022-08-21T14:09:34;28.40;38.80
63966;DHT22;50151;52.030;5.350;2022-08-21T14:12:04;27.90;41.60
63966;DHT22;50151;52.030;5.350;2022-08-21T14:14:49;27.90;41.40
63966;DHT22;50151;52.030;5.350;2022-08-21T14:17:33;27.30;42.90
63966;DHT22;50151;52.030;5.350;2022-08-21T14:20:01;27.50;41.00
63966;DHT22;50151;52.030;5.350;2022-08-21T14:22:39;27.70;40.50
63966;DHT22;50151;52.030;5.350;2022-08-21T14:25:26;27.60;41.60
63966;DHT22;50151;52.030;5.350;2022-08-21T14:28:03;26.90;42.60
63966;DHT22;50151;52.030;5.350;2022-08-21T14:30:38;27.00;43.00
63966;DHT22;50151;52.030;5.350;2022-08-21T14:33:11;26.80;42.60
63966;DHT22;50151;52.030;5.350;2022-08-21T14:35:38;26.80;42.80
63966;DHT22;50151;52.030;5.350;2022-08-21T14:38:21;26.90;42.70
63966;DHT22;50151;52.030;5.350;2022-08-21T14:40:51;26.00;43.80
63966;DHT22;50151;52.030;5.350;2022-08-21T14:43:19;25.80;44.50
63966;DHT22;50151;52.030;5.350;2022-08-21T14:45:47;25.40;45.10
63966;DHT22;50151;52.030;5.350;2022-08-21T14:48:14;25.70;44.70
63966;DHT22;50151;52.030;5.350;2022-08-21T14:50:42;25.70;44.50
63966;DHT22;50151;52.030;5.350;2022-08-21T14:53:09;25.80;44.80
63966;DHT22;50151;52.030;5.350;2022-08-21T14:55:38;25.60;44.80
63966;DHT22;50151;52.030;5.350;2022-08-21T14:58:25;25.30;44.90
63966;DHT22;50151;52.030;5.350;2022-08-21T15:00:54;25.40;45.50
63966;DHT22;50151;52.030;5.350;2022-08-21T15:03:21;25.50;45.60
63966;DHT22;50151;52.030;5.350;2022-08-21T15:05:48;25.20;45.70
63966;DHT22;50151;52.030;5.350;2022-08-21T15:08:16;25.10;46.40
63966;DHT22;50151;52.030;5.350;2022-08-21T15:10:43;25.10;46.80
63966;DHT22;50151;52.030;5.350;2022-08-21T15:13:31;24.80;46.60
63966;DHT22;50151;52.030;5.350;2022-08-21T15:15:59;24.50;48.00
63966;DHT22;50151;52.030;5.350;2022-08-21T15:18:28;24.90;48.00
63966;DHT22;50151;52.030;5.350;2022-08-21T15:20:55;24.60;48.30
63966;DHT22;50151;52.030;5.350;2022-08-21T15:23:22;24.90;48.10
63966;DHT22;50151;52.030;5.350;2022-08-21T15:25:49;25.10;48.30
63966;DHT22;50151;52.030;5.350;2022-08-21T15:28:17;24.60;48.20
63966;DHT22;50151;52.030;5.350;2022-08-21T15:30:45;24.40;48.50
63966;DHT22;50151;52.030;5.350;2022-08-21T15:33:12;24.40;48.60
63966;DHT22;50151;52.030;5.350;2022-08-21T15:35:39;24.50;48.90
63966;DHT22;50151;52.030;5.350;2022-08-21T15:38:06;24.30;48.80
63966;DHT22;50151;52.030;5.350;2022-08-21T15:40:38;24.50;49.00
63966;DHT22;50151;52.030;5.350;2022-08-21T15:43:23;24.80;49.00
63966;DHT22;50151;52.030;5.350;2022-08-21T15:45:57;24.70;48.70
63966;DHT22;50151;52.030;5.350;2022-08-21T15:48:24;24.70;49.80
63966;DHT22;50151;52.030;5.350;2022-08-21T15:50:51;24.70;49.70
63966;DHT22;50151;52.030;5.350;2022-08-21T15:53:19;24.80;49.30
63966;DHT22;50151;52.030;5.350;2022-08-21T15:55:45;24.50;49.80
63966;DHT22;50151;52.030;5.350;2022-08-21T15:58:14;24.80;49.70
63966;DHT22;50151;52.030;5.350;2022-08-21T16:00:43;25.00;49.80
63966;DHT22;50151;52.030;5.350;2022-08-21T16:03:13;25.00;49.70
63966;DHT22;50151;52.030;5.350;2022-08-21T16:05:44;24.90;50.10
63966;DHT22;50151;52.030;5.350;2022-08-21T16:08:11;25.00;50.20
63966;DHT22;50151;52.030;5.350;2022-08-21T16:10:41;24.90;48.60
63966;DHT22;50151;52.030;5.350;2022-08-21T16:13:25;24.90;49.30
63966;DHT22;50151;52.030;5.350;2022-08-21T16:15:53;24.50;49.60
63966;DHT22;50151;52.030;5.350;2022-08-21T16:18:21;24.70;49.60
63966;DHT22;50151;52.030;5.350;2022-08-21T16:20:49;24.50;49.80
63966;DHT22;50151;52.030;5.350;2022-08-21T16:23:16;24.40;49.50
63966;DHT22;50151;52.030;5.350;2022-08-21T16:25:44;24.40;48.30
63966;DHT22;50151;52.030;5.350;2022-08-21T16:28:14;24.30;49.20
63966;DHT22;50151;52.030;5.350;2022-08-21T16:30:44;24.40;47.50
63966;DHT22;50151;52.030;5.350;2022-08-21T16:35:46;24.40;47.30
63966;DHT22;50151;52.030;5.350;2022-08-21T16:38:14;24.40;48.30
63966;DHT22;50151;52.030;5.350;2022-08-21T16:40:40;24.40;47.60
63966;DHT22;50151;52.030;5.350;2022-08-21T16:43:07;24.30;48.10
63966;DHT22;50151;52.030;5.350;2022-08-21T16:45:34;24.20;49.30
63966;DHT22;50151;52.030;5.350;2022-08-21T16:48:01;24.20;50.10
63966;DHT22;50151;52.030;5.350;2022-08-21T16:50:30;24.30;49.90
63966;DHT22;50151;52.030;5.350;2022-08-21T16:52:57;24.30;50.40
63966;DHT22;50151;52.030;5.350;2022-08-21T16:55:24;24.40;50.20
63966;DHT22;50151;52.030;5.350;2022-08-21T16:57:53;24.10;49.80
63966;DHT22;50151;52.030;5.350;2022-08-21T17:00:20;24.10;50.30
63966;DHT22;50151;52.030;5.350;2022-08-21T17:02:50;23.90;50.80
63966;DHT22;50151;52.030;5.350;2022-08-21T17:05:19;23.70;51.00
63966;DHT22;50151;52.030;5.350;2022-08-21T17:07:46;23.90;51.00
63966;DHT22;50151;52.030;5.350;2022-08-21T17:10:14;23.90;52.10
63966;DHT22;50151;52.030;5.350;2022-08-21T17:12:43;23.70;51.60
63966;DHT22;50151;52.030;5.350;2022-08-21T17:15:19;23.80;51.90
63966;DHT22;50151;52.030;5.350;2022-08-21T17:17:48;23.80;52.10
63966;DHT22;50151;52.030;5.350;2022-08-21T17:20:16;23.60;51.90
63966;DHT22;50151;52.030;5.350;2022-08-21T17:22:43;23.50;52.30
63966;DHT22;50151;52.030;5.350;2022-08-21T17:25:10;23.60;52.20
63966;DHT22;50151;52.030;5.350;2022-08-21T17:27:39;23.50;52.20
63966;DHT22;50151;52.030;5.350;2022-08-21T17:30:07;23.40;52.90
63966;DHT22;50151;52.030;5.350;2022-08-21T17:32:34;23.30;52.50
63966;DHT22;50151;52.030;5.350;2022-08-21T17:35:02;23.50;53.70
63966;DHT22;50151;52.030;5.350;2022-08-21T17:37:29;23.50;53.00
63966;DHT22;50151;52.030;5.350;2022-08-21T17:39:56;23.30;53.10
63966;DHT22;50151;52.030;5.350;2022-08-21T17:42:23;23.30;53.30
63966;DHT22;50151;52.030;5.350;2022-08-21T17:44:51;23.20;53.30
63966;DHT22;50151;52.030;5.350;2022-08-21T17:47:18;23.30;54.60
63966;DHT22;50151;52.030;5.350;2022-08-21T17:49:45;23.30;53.30
63966;DHT22;50151;52.030;5.350;2022-08-21T17:52:13;23.20;53.90
63966;DHT22;50151;52.030;5.350;2022-08-21T17:54:40;23.20;53.80
63966;DHT22;50151;52.030;5.350;2022-08-21T17:57:18;23.10;53.90
63966;DHT22;50151;52.030;5.350;2022-08-21T17:59:48;23.00;54.30
63966;DHT22;50151;52.030;5.350;2022-08-21T18:02:19;23.10;54.00
63966;DHT22;50151;52.030;5.350;2022-08-21T18:04:48;23.10;54.40
63966;DHT22;50151;52.030;5.350;2022-08-21T18:07:17;23.00;55.10
63966;DHT22;50151;52.030;5.350;2022-08-21T18:10:03;23.00;54.60
63966;DHT22;50151;52.030;5.350;2022-08-21T18:12:31;23.00;55.80
63966;DHT22;50151;52.030;5.350;2022-08-21T18:15:00;22.90;58.30
63966;DHT22;50151;52.030;5.350;2022-08-21T18:17:27;22.80;58.80
63966;DHT22;50151;52.030;5.350;2022-08-21T18:19:56;22.80;59.40
63966;DHT22;50151;52.030;5.350;2022-08-21T18:22:26;22.70;60.20
63966;DHT22;50151;52.030;5.350;2022-08-21T18:24:53;22.70;60.00
63966;DHT22;50151;52.030;5.350;2022-08-21T18:27:20;22.60;61.00
63966;DHT22;50151;52.030;5.350;2022-08-21T18:29:55;22.50;61.60
63966;DHT22;50151;52.030;5.350;2022-08-21T18:32:23;22.50;61.90
63966;DHT22;50151;52.030;5.350;2022-08-21T18:35:00;22.40;62.20
63966;DHT22;50151;52.030;5.350;2022-08-21T18:37:28;22.30;62.60
63966;DHT22;50151;52.030;5.350;2022-08-21T18:39:55;22.30;63.10
63966;DHT22;50151;52.030;5.350;2022-08-21T18:42:23;22.20;63.30
63966;DHT22;50151;52.030;5.350;2022-08-21T18:44:58;22.10;63.60
63966;DHT22;50151;52.030;5.350;2022-08-21T18:47:30;22.00;64.00
63966;DHT22;50151;52.030;5.350;2022-08-21T18:49:59;21.90;64.10
63966;DHT22;50151;52.030;5.350;2022-08-21T18:52:26;21.90;64.50
63966;DHT22;50151;52.030;5.350;2022-08-21T18:54:54;21.90;64.20
63966;DHT22;50151;52.030;5.350;2022-08-21T18:57:23;21.80;64.50
63966;DHT22;50151;52.030;5.350;2022-08-21T18:59:51;21.80;64.90
63966;DHT22;50151;52.030;5.350;2022-08-21T19:02:18;21.70;65.00
63966;DHT22;50151;52.030;5.350;2022-08-21T19:04:44;21.70;64.70
63966;DHT22;50151;52.030;5.350;2022-08-21T19:07:15;21.70;65.40
63966;DHT22;50151;52.030;5.350;2022-08-21T19:09:42;21.60;65.50
63966;DHT22;50151;52.030;5.350;2022-08-21T19:12:27;21.50;65.90
63966;DHT22;50151;52.030;5.350;2022-08-21T19:14:56;21.50;65.70
63966;DHT22;50151;52.030;5.350;2022-08-21T19:17:23;21.50;66.20
63966;DHT22;50151;52.030;5.350;2022-08-21T19:19:51;21.50;66.40
63966;DHT22;50151;52.030;5.350;2022-08-21T19:22:18;21.40;66.80
63966;DHT22;50151;52.030;5.350;2022-08-21T19:24:45;21.40;67.20
63966;DHT22;50151;52.030;5.350;2022-08-21T19:27:16;21.20;67.50
63966;DHT22;50151;52.030;5.350;2022-08-21T19:29:43;21.20;67.90
63966;DHT22;50151;52.030;5.350;2022-08-21T19:32:11;21.10;68.10
63966;DHT22;50151;52.030;5.350;2022-08-21T19:34:39;21.00;68.50
63966;DHT22;50151;52.030;5.350;2022-08-21T19:37:09;20.90;69.00
63966;DHT22;50151;52.030;5.350;2022-08-21T19:39:37;20.80;69.50
63966;DHT22;50151;52.030;5.350;2022-08-21T19:42:12;20.90;69.50
63966;DHT22;50151;52.030;5.350;2022-08-21T19:44:39;20.80;69.30
63966;DHT22;50151;52.030;5.350;2022-08-21T19:47:16;20.70;69.70
63966;DHT22;50151;52.030;5.350;2022-08-21T19:50:05;20.70;69.70
63966;DHT22;50151;52.030;5.350;2022-08-21T19:52:46;20.60;69.60
63966;DHT22;50151;52.030;5.350;2022-08-21T19:55:34;20.50;69.40
63966;DHT22;50151;52.030;5.350;2022-08-21T19:58:01;20.50;69.80
63966;DHT22;50151;52.030;5.350;2022-08-21T20:00:29;20.50;70.00
63966;DHT22;50151;52.030;5.350;2022-08-21T20:02:56;20.40;70.50
63966;DHT22;50151;52.030;5.350;2022-08-21T20:05:23;20.30;70.60
63966;DHT22;50151;52.030;5.350;2022-08-21T20:08:01;20.30;70.90
63966;DHT22;50151;52.030;5.350;2022-08-21T20:10:29;20.20;71.10
63966;DHT22;50151;52.030;5.350;2022-08-21T20:12:56;20.20;71.30
63966;DHT22;50151;52.030;5.350;2022-08-21T20:15:26;20.10;72.10
63966;DHT22;50151;52.030;5.350;2022-08-21T20:17:53;20.10;72.30
63966;DHT22;50151;52.030;5.350;2022-08-21T20:20:19;20.00;72.40
63966;DHT22;50151;52.030;5.350;2022-08-21T20:22:46;20.00;72.30
63966;DHT22;50151;52.030;5.350;2022-08-21T20:25:13;19.90;72.30
63966;DHT22;50151;52.030;5.350;2022-08-21T20:27:40;19.90;72.60
63966;DHT22;50151;52.030;5.350;2022-08-21T20:30:08;19.90;72.50
63966;DHT22;50151;52.030;5.350;2022-08-21T20:32:35;19.80;72.80
63966;DHT22;50151;52.030;5.350;2022-08-21T20:35:03;19.80;73.00
63966;DHT22;50151;52.030;5.350;2022-08-21T20:37:37;19.70;73.00
63966;DHT22;50151;52.030;5.350;2022-08-21T20:40:08;19.70;73.10
63966;DHT22;50151;52.030;5.350;2022-08-21T20:42:38;19.70;73.00
63966;DHT22;50151;52.030;5.350;2022-08-21T20:45:06;19.70;73.30
63966;DHT22;50151;52.030;5.350;2022-08-21T20:47:57;19.70;73.50
63966;DHT22;50151;52.030;5.350;2022-08-21T20:50:26;19.60;73.70
63966;DHT22;50151;52.030;5.350;2022-08-21T20:53:04;19.60;73.80
63966;DHT22;50151;52.030;5.350;2022-08-21T20:55:34;19.50;74.10
63966;DHT22;50151;52.030;5.350;2022-08-21T20:58:08;19.50;74.30
63966;DHT22;50151;52.030;5.350;2022-08-21T21:00:40;19.40;74.70
63966;DHT22;50151;52.030;5.350;2022-08-21T21:03:16;19.40;74.90
63966;DHT22;50151;52.030;5.350;2022-08-21T21:06:02;19.40;75.10
63966;DHT22;50151;52.030;5.350;2022-08-21T21:08:38;19.40;75.10
63966;DHT22;50151;52.030;5.350;2022-08-21T21:11:20;19.40;75.30
63966;DHT22;50151;52.030;5.350;2022-08-21T21:13:58;19.30;75.50
63966;DHT22;50151;52.030;5.350;2022-08-21T21:16:45;19.30;75.60
63966;DHT22;50151;52.030;5.350;2022-08-21T21:22:17;19.30;75.50
63966;DHT22;50151;52.030;5.350;2022-08-21T21:27:38;19.20;76.00
63966;DHT22;50151;52.030;5.350;2022-08-21T21:30:08;19.20;76.20
63966;DHT22;50151;52.030;5.350;2022-08-21T21:32:39;19.20;76.30
63966;DHT22;50151;52.030;5.350;2022-08-21T21:35:07;19.10;76.50
63966;DHT22;50151;52.030;5.350;2022-08-21T21:37:46;19.20;76.50
63966;DHT22;50151;52.030;5.350;2022-08-21T21:40:47;19.10;76.30
63966;DHT22;50151;52.030;5.350;2022-08-21T21:43:26;19.10;76.60
63966;DHT22;50151;52.030;5.350;2022-08-21T21:46:15;19.10;76.40
63966;DHT22;50151;52.030;5.350;2022-08-21T21:57:36;19.00;77.00
63966;DHT22;50151;52.030;5.350;2022-08-21T22:00:13;19.00;77.00
63966;DHT22;50151;52.030;5.350;2022-08-21T22:08:01;19.00;76.70
63966;DHT22;50151;52.030;5.350;2022-08-21T22:10:51;19.00;76.80
63966;DHT22;50151;52.030;5.350;2022-08-21T22:13:32;18.90;76.80
63966;DHT22;50151;52.030;5.350;2022-08-21T22:16:05;18.90;76.80
63966;DHT22;50151;52.030;5.350;2022-08-21T22:18:41;18.90;76.60
63966;DHT22;50151;52.030;5.350;2022-08-21T22:21:17;19.00;76.60
63966;DHT22;50151;52.030;5.350;2022-08-21T22:23:53;19.00;76.80
63966;DHT22;50151;52.030;5.350;2022-08-21T22:26:36;18.90;76.60
63966;DHT22;50151;52.030;5.350;2022-08-21T22:29:16;19.00;76.10
63966;DHT22;50151;52.030;5.350;2022-08-21T22:31:45;19.00;76.30
63966;DHT22;50151;52.030;5.350;2022-08-21T22:34:25;19.00;76.20
63966;DHT22;50151;52.030;5.350;2022-08-21T22:36:57;19.00;75.70
63966;DHT22;50151;52.030;5.350;2022-08-21T22:39:40;19.00;75.50
63966;DHT22;50151;52.030;5.350;2022-08-21T22:42:11;19.00;75.40
63966;DHT22;50151;52.030;5.350;2022-08-21T22:44:53;19.00;75.60
63966;DHT22;50151;52.030;5.350;2022-08-21T22:47:34;19.00;75.40
63966;DHT22;50151;52.030;5.350;2022-08-21T22:50:15;19.10;75.40
63966;DHT22;50151;52.030;5.350;2022-08-21T22:52:52;19.10;75.10
63966;DHT22;50151;52.030;5.350;2022-08-21T22:55:22;19.00;75.10
63966;DHT22;50151;52.030;5.350;2022-08-21T22:59:07;19.00;75.10
63966;DHT22;50151;52.030;5.350;2022-08-21T23:04:09;19.00;75.10
63966;DHT22;50151;52.030;5.350;2022-08-21T23:06:47;19.10;74.90
63966;DHT22;50151;52.030;5.350;2022-08-21T23:11:47;19.00;75.70
63966;DHT22;50151;52.030;5.350;2022-08-21T23:14:16;19.10;75.80
63966;DHT22;50151;52.030;5.350;2022-08-21T23:17:08;19.00;75.00
63966;DHT22;50151;52.030;5.350;2022-08-21T23:20:08;19.00;75.20
63966;DHT22;50151;52.030;5.350;2022-08-21T23:22:57;19.00;75.20
63966;DHT22;50151;52.030;5.350;2022-08-21T23:25:49;19.00;75.30
63966;DHT22;50151;52.030;5.350;2022-08-21T23:28:44;18.90;75.40
63966;DHT22;50151;52.030;5.350;2022-08-21T23:34:08;19.00;75.40
63966;DHT22;50151;52.030;5.350;2022-08-21T23:42:37;18.80;75.20
63966;DHT22;50151;52.030;5.350;2022-08-21T23:45:53;18.90;75.60
63966;DHT22;50151;52.030;5.350;2022-08-21T23:48:43;18.90;75.30
63966;DHT22;50151;52.030;5.350;2022-08-21T23:51:33;18.80;75.50
